Tenerife / Sur Reina, Spain
Current Conditions -  °F | °C
As of 2:30 PM on Monday 20 Oct 2014 (Local Time) from GCTS Reporting Station
Scattered Clouds Scattered Clouds  
Wind Chill: 79°   Ceiling: Unl
Heat Index: 81°   Visibility: 6mi
Dew Point: 64°   Wind: 14mph
Humidity: 61%   Direction: 240°WSW
Pressure: 29.94"   Gusts: NA
Location:  28.05°N, 16.57°W
Report Text: GCTS 201330Z 24012KT 200V260 9999 SCT030 26/18 Q1014 NOSIG
Loading
Personal Weather Stations






























Interactive Weather Map
Tropical Storm Tracking
New forecast layout! Learn more

10-Day Weather Forecast

Advertisements
Track Severe Weather on mobile